sensor_id;sensor_type;location;lat;lon;timestamp;P1;durP1;ratioP1;P2;durP2;ratioP2
45356;SDS011;31092;51.924;21.448;2023-07-22T00:04:06;1.48;;;1.20;;
45356;SDS011;31092;51.924;21.448;2023-07-22T00:06:32;1.10;;;1.10;;
45356;SDS011;31092;51.924;21.448;2023-07-22T00:08:57;1.85;;;1.27;;
45356;SDS011;31092;51.924;21.448;2023-07-22T00:11:23;1.67;;;1.58;;
45356;SDS011;31092;51.924;21.448;2023-07-22T00:13:48;1.00;;;1.00;;
45356;SDS011;31092;51.924;21.448;2023-07-22T00:16:14;2.58;;;1.52;;
45356;SDS011;31092;51.924;21.448;2023-07-22T00:18:40;1.10;;;1.00;;
45356;SDS011;31092;51.924;21.448;2023-07-22T00:21:06;2.00;;;1.52;;
45356;SDS011;31092;51.924;21.448;2023-07-22T00:23:34;2.90;;;1.70;;
45356;SDS011;31092;51.924;21.448;2023-07-22T00:26:00;2.28;;;1.88;;
45356;SDS011;31092;51.924;21.448;2023-07-22T00:28:25;1.45;;;1.02;;
45356;SDS011;31092;51.924;21.448;2023-07-22T00:30:51;2.72;;;1.73;;
45356;SDS011;31092;51.924;21.448;2023-07-22T00:33:18;1.40;;;1.13;;
45356;SDS011;31092;51.924;21.448;2023-07-22T00:35:47;2.28;;;1.20;;
45356;SDS011;31092;51.924;21.448;2023-07-22T00:38:15;1.05;;;1.05;;
45356;SDS011;31092;51.924;21.448;2023-07-22T00:40:41;0.95;;;0.95;;
45356;SDS011;31092;51.924;21.448;2023-07-22T00:43:07;1.23;;;1.13;;
45356;SDS011;31092;51.924;21.448;2023-07-22T00:45:32;1.48;;;1.38;;
45356;SDS011;31092;51.924;21.448;2023-07-22T00:48:07;1.25;;;1.15;;
45356;SDS011;31092;51.924;21.448;2023-07-22T00:50:34;1.55;;;1.05;;
45356;SDS011;31092;51.924;21.448;2023-07-22T00:53:00;0.93;;;0.60;;
45356;SDS011;31092;51.924;21.448;2023-07-22T00:55:26;1.27;;;1.13;;
45356;SDS011;31092;51.924;21.448;2023-07-22T00:57:54;1.60;;;1.02;;
45356;SDS011;31092;51.924;21.448;2023-07-22T01:00:20;1.38;;;1.15;;
45356;SDS011;31092;51.924;21.448;2023-07-22T01:02:45;1.00;;;0.75;;
45356;SDS011;31092;51.924;21.448;2023-07-22T01:05:14;1.23;;;1.08;;
45356;SDS011;31092;51.924;21.448;2023-07-22T01:07:39;1.08;;;1.00;;
45356;SDS011;31092;51.924;21.448;2023-07-22T01:10:06;1.20;;;1.10;;
45356;SDS011;31092;51.924;21.448;2023-07-22T01:12:33;1.83;;;1.50;;
45356;SDS011;31092;51.924;21.448;2023-07-22T01:15:03;1.10;;;1.00;;
45356;SDS011;31092;51.924;21.448;2023-07-22T01:17:33;1.40;;;1.30;;
45356;SDS011;31092;51.924;21.448;2023-07-22T01:20:01;1.30;;;1.20;;
45356;SDS011;31092;51.924;21.448;2023-07-22T01:22:27;1.30;;;1.20;;
45356;SDS011;31092;51.924;21.448;2023-07-22T01:24:54;1.20;;;1.10;;
45356;SDS011;31092;51.924;21.448;2023-07-22T01:27:20;1.08;;;0.93;;
45356;SDS011;31092;51.924;21.448;2023-07-22T01:29:46;0.90;;;0.90;;
45356;SDS011;31092;51.924;21.448;2023-07-22T01:32:16;1.50;;;1.40;;
45356;SDS011;31092;51.924;21.448;2023-07-22T01:34:42;1.17;;;1.08;;
45356;SDS011;31092;51.924;21.448;2023-07-22T01:37:08;1.10;;;1.00;;
45356;SDS011;31092;51.924;21.448;2023-07-22T01:39:44;1.48;;;1.05;;
45356;SDS011;31092;51.924;21.448;2023-07-22T01:42:09;0.80;;;0.80;;
45356;SDS011;31092;51.924;21.448;2023-07-22T01:44:35;1.10;;;1.10;;
45356;SDS011;31092;51.924;21.448;2023-07-22T01:47:10;1.23;;;1.20;;
45356;SDS011;31092;51.924;21.448;2023-07-22T01:49:35;1.15;;;1.00;;
45356;SDS011;31092;51.924;21.448;2023-07-22T01:52:01;1.38;;;1.02;;
45356;SDS011;31092;51.924;21.448;2023-07-22T01:54:27;1.20;;;1.10;;
45356;SDS011;31092;51.924;21.448;2023-07-22T01:56:52;4.28;;;1.20;;
45356;SDS011;31092;51.924;21.448;2023-07-22T01:59:18;1.83;;;1.58;;
45356;SDS011;31092;51.924;21.448;2023-07-22T02:01:43;0.98;;;0.95;;
45356;SDS011;31092;51.924;21.448;2023-07-22T02:04:09;1.20;;;1.15;;
45356;SDS011;31092;51.924;21.448;2023-07-22T02:06:36;0.93;;;0.90;;
45356;SDS011;31092;51.924;21.448;2023-07-22T02:09:02;1.30;;;1.20;;
45356;SDS011;31092;51.924;21.448;2023-07-22T02:11:34;2.25;;;1.20;;
45356;SDS011;31092;51.924;21.448;2023-07-22T02:14:01;1.55;;;1.27;;
45356;SDS011;31092;51.924;21.448;2023-07-22T02:16:26;1.92;;;1.25;;
45356;SDS011;31092;51.924;21.448;2023-07-22T02:18:52;1.38;;;1.27;;
45356;SDS011;31092;51.924;21.448;2023-07-22T02:21:20;1.05;;;1.05;;
45356;SDS011;31092;51.924;21.448;2023-07-22T02:23:46;1.20;;;1.10;;
45356;SDS011;31092;51.924;21.448;2023-07-22T02:26:12;1.45;;;1.35;;
45356;SDS011;31092;51.924;21.448;2023-07-22T02:28:37;1.08;;;0.90;;
45356;SDS011;31092;51.924;21.448;2023-07-22T02:31:03;1.42;;;1.33;;
45356;SDS011;31092;51.924;21.448;2023-07-22T02:33:32;1.65;;;1.05;;
45356;SDS011;31092;51.924;21.448;2023-07-22T02:35:58;0.90;;;0.90;;
45356;SDS011;31092;51.924;21.448;2023-07-22T02:38:42;1.45;;;1.13;;
45356;SDS011;31092;51.924;21.448;2023-07-22T02:41:17;1.48;;;1.35;;
45356;SDS011;31092;51.924;21.448;2023-07-22T02:43:43;1.75;;;1.13;;
45356;SDS011;31092;51.924;21.448;2023-07-22T02:46:09;1.40;;;1.30;;
45356;SDS011;31092;51.924;21.448;2023-07-22T02:48:34;1.25;;;1.15;;
45356;SDS011;31092;51.924;21.448;2023-07-22T02:51:07;1.42;;;1.30;;
45356;SDS011;31092;51.924;21.448;2023-07-22T02:53:33;3.05;;;1.50;;
45356;SDS011;31092;51.924;21.448;2023-07-22T02:56:03;1.13;;;1.02;;
45356;SDS011;31092;51.924;21.448;2023-07-22T02:58:29;1.88;;;1.20;;
45356;SDS011;31092;51.924;21.448;2023-07-22T03:00:55;1.17;;;1.10;;
45356;SDS011;31092;51.924;21.448;2023-07-22T03:03:22;1.92;;;1.30;;
45356;SDS011;31092;51.924;21.448;2023-07-22T03:05:48;7.97;;;1.40;;
45356;SDS011;31092;51.924;21.448;2023-07-22T03:08:14;1.38;;;1.20;;
45356;SDS011;31092;51.924;21.448;2023-07-22T03:10:40;1.75;;;1.38;;
45356;SDS011;31092;51.924;21.448;2023-07-22T03:13:06;1.75;;;1.42;;
45356;SDS011;31092;51.924;21.448;2023-07-22T03:15:32;1.27;;;1.15;;
45356;SDS011;31092;51.924;21.448;2023-07-22T03:17:58;1.92;;;1.35;;
45356;SDS011;31092;51.924;21.448;2023-07-22T03:20:25;1.17;;;1.17;;
45356;SDS011;31092;51.924;21.448;2023-07-22T03:22:54;2.45;;;1.65;;
45356;SDS011;31092;51.924;21.448;2023-07-22T03:25:19;1.83;;;1.52;;
45356;SDS011;31092;51.924;21.448;2023-07-22T03:27:48;1.27;;;1.17;;
45356;SDS011;31092;51.924;21.448;2023-07-22T03:30:15;1.40;;;1.23;;
45356;SDS011;31092;51.924;21.448;2023-07-22T03:32:52;1.48;;;1.38;;
45356;SDS011;31092;51.924;21.448;2023-07-22T03:35:17;1.40;;;1.30;;
45356;SDS011;31092;51.924;21.448;2023-07-22T03:37:43;1.73;;;1.63;;
45356;SDS011;31092;51.924;21.448;2023-07-22T03:40:09;1.80;;;1.70;;
45356;SDS011;31092;51.924;21.448;2023-07-22T03:42:48;1.90;;;1.75;;
45356;SDS011;31092;51.924;21.448;2023-07-22T03:45:18;2.13;;;1.90;;
45356;SDS011;31092;51.924;21.448;2023-07-22T03:47:45;1.65;;;1.55;;
45356;SDS011;31092;51.924;21.448;2023-07-22T03:50:14;1.42;;;1.33;;
45356;SDS011;31092;51.924;21.448;2023-07-22T03:52:40;10.00;;;2.10;;
45356;SDS011;31092;51.924;21.448;2023-07-22T03:55:06;2.42;;;1.70;;
45356;SDS011;31092;51.924;21.448;2023-07-22T03:57:32;2.53;;;1.70;;
45356;SDS011;31092;51.924;21.448;2023-07-22T03:59:57;7.38;;;1.70;;
45356;SDS011;31092;51.924;21.448;2023-07-22T04:02:23;2.15;;;2.05;;
45356;SDS011;31092;51.924;21.448;2023-07-22T04:04:53;3.10;;;2.90;;
45356;SDS011;31092;51.924;21.448;2023-07-22T04:07:20;2.88;;;2.40;;
45356;SDS011;31092;51.924;21.448;2023-07-22T04:09:46;7.90;;;2.40;;
45356;SDS011;31092;51.924;21.448;2023-07-22T04:12:12;3.35;;;2.40;;
45356;SDS011;31092;51.924;21.448;2023-07-22T04:14:38;2.90;;;2.70;;
45356;SDS011;31092;51.924;21.448;2023-07-22T04:17:04;3.03;;;2.72;;
45356;SDS011;31092;51.924;21.448;2023-07-22T04:19:30;2.25;;;2.08;;
45356;SDS011;31092;51.924;21.448;2023-07-22T04:21:56;2.95;;;2.67;;
45356;SDS011;31092;51.924;21.448;2023-07-22T04:24:21;2.97;;;2.78;;
45356;SDS011;31092;51.924;21.448;2023-07-22T04:26:48;2.63;;;2.33;;
45356;SDS011;31092;51.924;21.448;2023-07-22T04:29:13;5.15;;;3.13;;
45356;SDS011;31092;51.924;21.448;2023-07-22T04:31:39;3.15;;;2.58;;
45356;SDS011;31092;51.924;21.448;2023-07-22T04:34:05;3.00;;;2.67;;
45356;SDS011;31092;51.924;21.448;2023-07-22T04:36:32;4.13;;;3.10;;
45356;SDS011;31092;51.924;21.448;2023-07-22T04:38:57;3.00;;;2.70;;
45356;SDS011;31092;51.924;21.448;2023-07-22T04:41:26;4.47;;;2.60;;
45356;SDS011;31092;51.924;21.448;2023-07-22T04:43:52;3.10;;;2.90;;
45356;SDS011;31092;51.924;21.448;2023-07-22T04:46:21;3.67;;;2.83;;
45356;SDS011;31092;51.924;21.448;2023-07-22T04:48:48;3.65;;;3.05;;
45356;SDS011;31092;51.924;21.448;2023-07-22T04:51:14;2.35;;;2.15;;
45356;SDS011;31092;51.924;21.448;2023-07-22T04:53:39;4.03;;;3.55;;
45356;SDS011;31092;51.924;21.448;2023-07-22T04:56:14;3.13;;;2.53;;
45356;SDS011;31092;51.924;21.448;2023-07-22T04:58:41;2.83;;;2.63;;
45356;SDS011;31092;51.924;21.448;2023-07-22T05:01:07;3.05;;;2.72;;
45356;SDS011;31092;51.924;21.448;2023-07-22T05:03:33;4.63;;;2.75;;
45356;SDS011;31092;51.924;21.448;2023-07-22T05:05:59;2.47;;;2.22;;
45356;SDS011;31092;51.924;21.448;2023-07-22T05:08:26;3.47;;;2.58;;
45356;SDS011;31092;51.924;21.448;2023-07-22T05:10:52;6.05;;;2.83;;
45356;SDS011;31092;51.924;21.448;2023-07-22T05:13:29;3.58;;;2.97;;
45356;SDS011;31092;51.924;21.448;2023-07-22T05:15:54;3.28;;;2.97;;
45356;SDS011;31092;51.924;21.448;2023-07-22T05:18:27;3.10;;;2.83;;
45356;SDS011;31092;51.924;21.448;2023-07-22T05:20:52;2.80;;;2.50;;
45356;SDS011;31092;51.924;21.448;2023-07-22T05:23:18;2.50;;;2.40;;
45356;SDS011;31092;51.924;21.448;2023-07-22T05:25:44;2.72;;;2.53;;
45356;SDS011;31092;51.924;21.448;2023-07-22T05:28:18;5.63;;;3.10;;
45356;SDS011;31092;51.924;21.448;2023-07-22T05:30:44;2.70;;;2.50;;
45356;SDS011;31092;51.924;21.448;2023-07-22T05:33:10;2.40;;;2.17;;
45356;SDS011;31092;51.924;21.448;2023-07-22T05:35:36;3.50;;;2.60;;
45356;SDS011;31092;51.924;21.448;2023-07-22T05:38:05;5.13;;;2.53;;
45356;SDS011;31092;51.924;21.448;2023-07-22T05:40:53;2.33;;;2.13;;
45356;SDS011;31092;51.924;21.448;2023-07-22T05:43:20;3.50;;;2.75;;
45356;SDS011;31092;51.924;21.448;2023-07-22T05:45:46;2.67;;;2.47;;
45356;SDS011;31092;51.924;21.448;2023-07-22T05:48:12;1.98;;;1.88;;
45356;SDS011;31092;51.924;21.448;2023-07-22T05:50:37;2.55;;;1.88;;
45356;SDS011;31092;51.924;21.448;2023-07-22T05:53:03;2.80;;;1.48;;
45356;SDS011;31092;51.924;21.448;2023-07-22T05:55:29;1.48;;;1.38;;
45356;SDS011;31092;51.924;21.448;2023-07-22T05:58:06;2.00;;;1.75;;
45356;SDS011;31092;51.924;21.448;2023-07-22T06:00:35;3.08;;;2.78;;
45356;SDS011;31092;51.924;21.448;2023-07-22T06:03:09;1.42;;;1.33;;
45356;SDS011;31092;51.924;21.448;2023-07-22T06:05:37;1.73;;;1.60;;
45356;SDS011;31092;51.924;21.448;2023-07-22T06:08:03;1.90;;;1.70;;
45356;SDS011;31092;51.924;21.448;2023-07-22T06:10:29;2.42;;;1.83;;
45356;SDS011;31092;51.924;21.448;2023-07-22T06:13:04;2.63;;;2.42;;
45356;SDS011;31092;51.924;21.448;2023-07-22T06:15:30;2.65;;;2.45;;
45356;SDS011;31092;51.924;21.448;2023-07-22T06:17:56;3.65;;;2.38;;
45356;SDS011;31092;51.924;21.448;2023-07-22T06:20:22;2.03;;;1.92;;
45356;SDS011;31092;51.924;21.448;2023-07-22T06:26:39;5.50;;;2.03;;
45356;SDS011;31092;51.924;21.448;2023-07-22T06:35:21;2.53;;;2.03;;
45356;SDS011;31092;51.924;21.448;2023-07-22T06:37:48;2.72;;;2.53;;
45356;SDS011;31092;51.924;21.448;2023-07-22T06:40:24;3.40;;;2.33;;
45356;SDS011;31092;51.924;21.448;2023-07-22T06:43:00;2.35;;;2.03;;
45356;SDS011;31092;51.924;21.448;2023-07-22T06:45:26;2.17;;;2.08;;
45356;SDS011;31092;51.924;21.448;2023-07-22T06:48:07;3.17;;;2.40;;
45356;SDS011;31092;51.924;21.448;2023-07-22T06:50:50;1.88;;;1.77;;
45356;SDS011;31092;51.924;21.448;2023-07-22T06:53:17;2.08;;;1.98;;
45356;SDS011;31092;51.924;21.448;2023-07-22T06:55:49;1.60;;;1.50;;
45356;SDS011;31092;51.924;21.448;2023-07-22T06:58:18;3.88;;;1.60;;
45356;SDS011;31092;51.924;21.448;2023-07-22T07:00:48;1.88;;;1.63;;
45356;SDS011;31092;51.924;21.448;2023-07-22T07:03:18;1.70;;;1.60;;
45356;SDS011;31092;51.924;21.448;2023-07-22T07:05:51;2.00;;;1.85;;
45356;SDS011;31092;51.924;21.448;2023-07-22T07:08:21;1.88;;;1.67;;
45356;SDS011;31092;51.924;21.448;2023-07-22T07:10:49;1.50;;;1.40;;
45356;SDS011;31092;51.924;21.448;2023-07-22T07:13:18;1.85;;;1.52;;
45356;SDS011;31092;51.924;21.448;2023-07-22T07:15:47;1.57;;;1.47;;
45356;SDS011;31092;51.924;21.448;2023-07-22T07:18:25;1.60;;;1.50;;
45356;SDS011;31092;51.924;21.448;2023-07-22T07:24:12;3.67;;;1.58;;
45356;SDS011;31092;51.924;21.448;2023-07-22T07:26:37;1.35;;;1.25;;
45356;SDS011;31092;51.924;21.448;2023-07-22T07:29:04;1.30;;;1.20;;
45356;SDS011;31092;51.924;21.448;2023-07-22T07:31:31;1.40;;;1.30;;
45356;SDS011;31092;51.924;21.448;2023-07-22T07:33:59;1.25;;;1.02;;
45356;SDS011;31092;51.924;21.448;2023-07-22T07:36:34;1.20;;;1.10;;
45356;SDS011;31092;51.924;21.448;2023-07-22T07:41:31;1.30;;;1.02;;
45356;SDS011;31092;51.924;21.448;2023-07-22T07:44:05;0.70;;;0.70;;
45356;SDS011;31092;51.924;21.448;2023-07-22T07:46:31;1.67;;;1.02;;
45356;SDS011;31092;51.924;21.448;2023-07-22T07:48:58;1.30;;;1.23;;
45356;SDS011;31092;51.924;21.448;2023-07-22T07:51:26;1.73;;;0.90;;
45356;SDS011;31092;51.924;21.448;2023-07-22T07:56:40;0.80;;;0.80;;
45356;SDS011;31092;51.924;21.448;2023-07-22T07:59:06;0.95;;;0.82;;
45356;SDS011;31092;51.924;21.448;2023-07-22T08:01:33;0.85;;;0.82;;
45356;SDS011;31092;51.924;21.448;2023-07-22T08:04:00;1.02;;;0.98;;
45356;SDS011;31092;51.924;21.448;2023-07-22T08:06:33;0.93;;;0.93;;
45356;SDS011;31092;51.924;21.448;2023-07-22T08:11:54;0.82;;;0.80;;
45356;SDS011;31092;51.924;21.448;2023-07-22T08:14:29;2.15;;;1.00;;
45356;SDS011;31092;51.924;21.448;2023-07-22T08:16:55;0.95;;;0.90;;
45356;SDS011;31092;51.924;21.448;2023-07-22T08:19:26;3.10;;;0.70;;
45356;SDS011;31092;51.924;21.448;2023-07-22T08:21:51;1.25;;;1.15;;
45356;SDS011;31092;51.924;21.448;2023-07-22T08:24:17;1.70;;;1.10;;
45356;SDS011;31092;51.924;21.448;2023-07-22T08:26:51;2.67;;;0.90;;
45356;SDS011;31092;51.924;21.448;2023-07-22T08:29:27;1.77;;;0.82;;
45356;SDS011;31092;51.924;21.448;2023-07-22T08:31:53;1.48;;;0.90;;
45356;SDS011;31092;51.924;21.448;2023-07-22T08:36:57;0.77;;;0.65;;
45356;SDS011;31092;51.924;21.448;2023-07-22T08:39:26;1.00;;;0.85;;
45356;SDS011;31092;51.924;21.448;2023-07-22T08:41:51;0.88;;;0.70;;
45356;SDS011;31092;51.924;21.448;2023-07-22T08:44:19;0.88;;;0.88;;
45356;SDS011;31092;51.924;21.448;2023-07-22T08:46:46;0.73;;;0.70;;
45356;SDS011;31092;51.924;21.448;2023-07-22T08:49:15;0.75;;;0.75;;
45356;SDS011;31092;51.924;21.448;2023-07-22T08:51:41;5.30;;;0.80;;
45356;SDS011;31092;51.924;21.448;2023-07-22T08:54:08;0.75;;;0.70;;
45356;SDS011;31092;51.924;21.448;2023-07-22T08:56:34;1.10;;;1.02;;
45356;SDS011;31092;51.924;21.448;2023-07-22T08:59:00;0.73;;;0.73;;
45356;SDS011;31092;51.924;21.448;2023-07-22T09:01:26;1.23;;;0.73;;
45356;SDS011;31092;51.924;21.448;2023-07-22T09:03:53;1.05;;;1.00;;
45356;SDS011;31092;51.924;21.448;2023-07-22T09:06:21;0.70;;;0.70;;
45356;SDS011;31092;51.924;21.448;2023-07-22T09:08:47;0.70;;;0.70;;
45356;SDS011;31092;51.924;21.448;2023-07-22T09:11:13;2.08;;;0.75;;
45356;SDS011;31092;51.924;21.448;2023-07-22T09:13:40;1.42;;;0.93;;
45356;SDS011;31092;51.924;21.448;2023-07-22T09:16:09;0.93;;;0.80;;
45356;SDS011;31092;51.924;21.448;2023-07-22T09:18:36;1.02;;;1.00;;
45356;SDS011;31092;51.924;21.448;2023-07-22T09:21:01;1.10;;;0.80;;
45356;SDS011;31092;51.924;21.448;2023-07-22T09:23:33;0.80;;;0.80;;
45356;SDS011;31092;51.924;21.448;2023-07-22T09:26:09;6.53;;;0.93;;
45356;SDS011;31092;51.924;21.448;2023-07-22T09:28:51;0.82;;;0.70;;
45356;SDS011;31092;51.924;21.448;2023-07-22T09:31:23;1.17;;;0.90;;
45356;SDS011;31092;51.924;21.448;2023-07-22T09:33:50;0.70;;;0.70;;
45356;SDS011;31092;51.924;21.448;2023-07-22T09:36:16;1.15;;;1.00;;
45356;SDS011;31092;51.924;21.448;2023-07-22T09:38:42;0.70;;;0.70;;
45356;SDS011;31092;51.924;21.448;2023-07-22T09:41:07;1.08;;;0.77;;
45356;SDS011;31092;51.924;21.448;2023-07-22T09:43:37;2.38;;;0.90;;
45356;SDS011;31092;51.924;21.448;2023-07-22T09:46:07;0.65;;;0.65;;
45356;SDS011;31092;51.924;21.448;2023-07-22T09:48:41;4.13;;;1.13;;
45356;SDS011;31092;51.924;21.448;2023-07-22T09:51:14;1.63;;;0.93;;
45356;SDS011;31092;51.924;21.448;2023-07-22T09:53:47;0.80;;;0.80;;
45356;SDS011;31092;51.924;21.448;2023-07-22T09:56:23;0.60;;;0.50;;
45356;SDS011;31092;51.924;21.448;2023-07-22T09:58:49;1.52;;;0.90;;
45356;SDS011;31092;51.924;21.448;2023-07-22T10:04:38;1.08;;;0.80;;
45356;SDS011;31092;51.924;21.448;2023-07-22T10:07:05;2.72;;;0.93;;
45356;SDS011;31092;51.924;21.448;2023-07-22T10:09:32;1.02;;;0.95;;
45356;SDS011;31092;51.924;21.448;2023-07-22T10:12:02;3.00;;;0.90;;
45356;SDS011;31092;51.924;21.448;2023-07-22T10:14:28;1.00;;;0.95;;
45356;SDS011;31092;51.924;21.448;2023-07-22T10:16:54;0.80;;;0.80;;
45356;SDS011;31092;51.924;21.448;2023-07-22T10:19:20;0.80;;;0.80;;
45356;SDS011;31092;51.924;21.448;2023-07-22T10:21:48;1.65;;;0.75;;
45356;SDS011;31092;51.924;21.448;2023-07-22T10:24:15;1.63;;;0.73;;
45356;SDS011;31092;51.924;21.448;2023-07-22T10:26:41;1.25;;;1.15;;
45356;SDS011;31092;51.924;21.448;2023-07-22T10:29:06;0.60;;;0.60;;
45356;SDS011;31092;51.924;21.448;2023-07-22T10:31:33;0.60;;;0.60;;
45356;SDS011;31092;51.924;21.448;2023-07-22T10:34:00;0.68;;;0.60;;
45356;SDS011;31092;51.924;21.448;2023-07-22T10:36:28;0.73;;;0.73;;
45356;SDS011;31092;51.924;21.448;2023-07-22T10:38:56;0.63;;;0.63;;
45356;SDS011;31092;51.924;21.448;2023-07-22T10:41:22;0.65;;;0.60;;
45356;SDS011;31092;51.924;21.448;2023-07-22T10:43:55;0.73;;;0.73;;
45356;SDS011;31092;51.924;21.448;2023-07-22T10:49:27;0.77;;;0.68;;
45356;SDS011;31092;51.924;21.448;2023-07-22T10:52:07;0.88;;;0.65;;
45356;SDS011;31092;51.924;21.448;2023-07-22T10:54:35;0.60;;;0.60;;
45356;SDS011;31092;51.924;21.448;2023-07-22T10:57:43;0.50;;;0.50;;
45356;SDS011;31092;51.924;21.448;2023-07-22T10:59:51;0.50;;;0.50;;
45356;SDS011;31092;51.924;21.448;2023-07-22T11:02:27;0.95;;;0.70;;
45356;SDS011;31092;51.924;21.448;2023-07-22T11:04:58;1.45;;;0.75;;
45356;SDS011;31092;51.924;21.448;2023-07-22T11:07:33;0.60;;;0.52;;
45356;SDS011;31092;51.924;21.448;2023-07-22T11:10:13;0.50;;;0.50;;
45356;SDS011;31092;51.924;21.448;2023-07-22T11:12:42;0.50;;;0.50;;
45356;SDS011;31092;51.924;21.448;2023-07-22T11:15:09;0.60;;;0.60;;
45356;SDS011;31092;51.924;21.448;2023-07-22T11:17:34;0.60;;;0.57;;
45356;SDS011;31092;51.924;21.448;2023-07-22T11:20:01;6.65;;;0.80;;
45356;SDS011;31092;51.924;21.448;2023-07-22T11:22:27;1.00;;;0.95;;
45356;SDS011;31092;51.924;21.448;2023-07-22T11:24:55;0.40;;;0.40;;
45356;SDS011;31092;51.924;21.448;2023-07-22T11:27:23;0.55;;;0.55;;
45356;SDS011;31092;51.924;21.448;2023-07-22T11:29:49;0.75;;;0.75;;
45356;SDS011;31092;51.924;21.448;2023-07-22T11:32:18;0.55;;;0.55;;
45356;SDS011;31092;51.924;21.448;2023-07-22T11:34:47;0.40;;;0.40;;
45356;SDS011;31092;51.924;21.448;2023-07-22T11:37:13;2.03;;;1.92;;
45356;SDS011;31092;51.924;21.448;2023-07-22T11:39:40;0.60;;;0.60;;
45356;SDS011;31092;51.924;21.448;2023-07-22T11:42:07;0.88;;;0.80;;
45356;SDS011;31092;51.924;21.448;2023-07-22T11:44:33;1.17;;;0.90;;
45356;SDS011;31092;51.924;21.448;2023-07-22T11:47:03;0.60;;;0.60;;
45356;SDS011;31092;51.924;21.448;2023-07-22T11:49:30;1.38;;;0.50;;
45356;SDS011;31092;51.924;21.448;2023-07-22T11:51:57;0.60;;;0.60;;
45356;SDS011;31092;51.924;21.448;2023-07-22T11:54:27;0.85;;;0.68;;
45356;SDS011;31092;51.924;21.448;2023-07-22T11:56:55;0.82;;;0.63;;
45356;SDS011;31092;51.924;21.448;2023-07-22T11:59:34;0.60;;;0.60;;
45356;SDS011;31092;51.924;21.448;2023-07-22T12:02:00;0.60;;;0.60;;
45356;SDS011;31092;51.924;21.448;2023-07-22T12:04:28;3.88;;;0.60;;
45356;SDS011;31092;51.924;21.448;2023-07-22T12:06:54;0.68;;;0.65;;
45356;SDS011;31092;51.924;21.448;2023-07-22T12:09:19;0.82;;;0.77;;
45356;SDS011;31092;51.924;21.448;2023-07-22T12:11:45;1.00;;;0.90;;
45356;SDS011;31092;51.924;21.448;2023-07-22T12:14:13;1.15;;;0.73;;
45356;SDS011;31092;51.924;21.448;2023-07-22T12:16:40;0.70;;;0.70;;
45356;SDS011;31092;51.924;21.448;2023-07-22T12:19:07;1.50;;;0.60;;
45356;SDS011;31092;51.924;21.448;2023-07-22T12:21:34;0.70;;;0.70;;
45356;SDS011;31092;51.924;21.448;2023-07-22T12:24:00;0.57;;;0.57;;
45356;SDS011;31092;51.924;21.448;2023-07-22T12:26:26;1.50;;;0.73;;
45356;SDS011;31092;51.924;21.448;2023-07-22T12:28:53;1.02;;;0.95;;
45356;SDS011;31092;51.924;21.448;2023-07-22T12:31:19;0.60;;;0.60;;
45356;SDS011;31092;51.924;21.448;2023-07-22T12:33:45;5.63;;;0.75;;
45356;SDS011;31092;51.924;21.448;2023-07-22T12:36:10;0.95;;;0.93;;
45356;SDS011;31092;51.924;21.448;2023-07-22T12:38:36;0.70;;;0.70;;
45356;SDS011;31092;51.924;21.448;2023-07-22T12:41:02;0.65;;;0.65;;
45356;SDS011;31092;51.924;21.448;2023-07-22T12:43:29;1.63;;;0.80;;
45356;SDS011;31092;51.924;21.448;2023-07-22T12:45:55;0.50;;;0.50;;
45356;SDS011;31092;51.924;21.448;2023-07-22T12:48:21;3.20;;;0.70;;
45356;SDS011;31092;51.924;21.448;2023-07-22T12:50:46;0.55;;;0.55;;
45356;SDS011;31092;51.924;21.448;2023-07-22T12:53:12;0.73;;;0.73;;
45356;SDS011;31092;51.924;21.448;2023-07-22T12:55:38;0.98;;;0.90;;
45356;SDS011;31092;51.924;21.448;2023-07-22T12:58:04;1.10;;;0.98;;
45356;SDS011;31092;51.924;21.448;2023-07-22T13:00:30;1.08;;;0.80;;
45356;SDS011;31092;51.924;21.448;2023-07-22T13:02:55;0.63;;;0.63;;
45356;SDS011;31092;51.924;21.448;2023-07-22T13:05:22;0.57;;;0.57;;
45356;SDS011;31092;51.924;21.448;2023-07-22T13:07:48;0.93;;;0.80;;
45356;SDS011;31092;51.924;21.448;2023-07-22T13:10:15;0.60;;;0.60;;
45356;SDS011;31092;51.924;21.448;2023-07-22T13:12:43;0.70;;;0.57;;
45356;SDS011;31092;51.924;21.448;2023-07-22T13:15:09;0.70;;;0.70;;
45356;SDS011;31092;51.924;21.448;2023-07-22T13:17:35;3.63;;;0.80;;
45356;SDS011;31092;51.924;21.448;2023-07-22T13:20:01;1.88;;;1.00;;
45356;SDS011;31092;51.924;21.448;2023-07-22T13:22:30;1.00;;;0.52;;
45356;SDS011;31092;51.924;21.448;2023-07-22T13:24:55;0.52;;;0.52;;
45356;SDS011;31092;51.924;21.448;2023-07-22T13:27:21;0.75;;;0.70;;
45356;SDS011;31092;51.924;21.448;2023-07-22T13:29:46;1.42;;;0.80;;
45356;SDS011;31092;51.924;21.448;2023-07-22T13:32:12;0.70;;;0.70;;
45356;SDS011;31092;51.924;21.448;2023-07-22T13:34:37;1.50;;;0.82;;
45356;SDS011;31092;51.924;21.448;2023-07-22T13:37:03;0.90;;;0.80;;
45356;SDS011;31092;51.924;21.448;2023-07-22T13:39:29;0.65;;;0.65;;
45356;SDS011;31092;51.924;21.448;2023-07-22T13:41:54;0.73;;;0.73;;
45356;SDS011;31092;51.924;21.448;2023-07-22T13:44:20;0.95;;;0.85;;
45356;SDS011;31092;51.924;21.448;2023-07-22T13:46:45;0.50;;;0.50;;
45356;SDS011;31092;51.924;21.448;2023-07-22T13:49:11;0.63;;;0.63;;
45356;SDS011;31092;51.924;21.448;2023-07-22T13:51:36;1.35;;;0.75;;
45356;SDS011;31092;51.924;21.448;2023-07-22T13:54:02;1.05;;;0.88;;
45356;SDS011;31092;51.924;21.448;2023-07-22T13:56:28;1.02;;;0.80;;
45356;SDS011;31092;51.924;21.448;2023-07-22T13:58:53;0.90;;;0.90;;
45356;SDS011;31092;51.924;21.448;2023-07-22T14:01:20;1.10;;;1.00;;
45356;SDS011;31092;51.924;21.448;2023-07-22T14:03:45;0.60;;;0.60;;
45356;SDS011;31092;51.924;21.448;2023-07-22T14:06:11;3.83;;;3.63;;
45356;SDS011;31092;51.924;21.448;2023-07-22T14:08:36;0.70;;;0.70;;
45356;SDS011;31092;51.924;21.448;2023-07-22T14:11:03;1.55;;;0.73;;
45356;SDS011;31092;51.924;21.448;2023-07-22T14:13:29;0.80;;;0.80;;
45356;SDS011;31092;51.924;21.448;2023-07-22T14:15:54;0.80;;;0.80;;
45356;SDS011;31092;51.924;21.448;2023-07-22T14:18:20;0.80;;;0.80;;
45356;SDS011;31092;51.924;21.448;2023-07-22T14:20:45;0.77;;;0.70;;
45356;SDS011;31092;51.924;21.448;2023-07-22T14:23:11;0.80;;;0.80;;
45356;SDS011;31092;51.924;21.448;2023-07-22T14:25:38;0.90;;;0.90;;
45356;SDS011;31092;51.924;21.448;2023-07-22T14:28:03;0.88;;;0.88;;
45356;SDS011;31092;51.924;21.448;2023-07-22T14:30:29;0.70;;;0.70;;
45356;SDS011;31092;51.924;21.448;2023-07-22T14:32:54;1.23;;;1.13;;
45356;SDS011;31092;51.924;21.448;2023-07-22T14:35:20;0.95;;;0.90;;
45356;SDS011;31092;51.924;21.448;2023-07-22T14:37:46;0.80;;;0.80;;
45356;SDS011;31092;51.924;21.448;2023-07-22T14:40:12;0.90;;;0.90;;
45356;SDS011;31092;51.924;21.448;2023-07-22T14:42:37;0.73;;;0.73;;
45356;SDS011;31092;51.924;21.448;2023-07-22T14:45:03;1.88;;;0.95;;
45356;SDS011;31092;51.924;21.448;2023-07-22T14:47:30;0.82;;;0.82;;
45356;SDS011;31092;51.924;21.448;2023-07-22T14:49:56;0.82;;;0.80;;
45356;SDS011;31092;51.924;21.448;2023-07-22T14:52:21;0.98;;;0.98;;
45356;SDS011;31092;51.924;21.448;2023-07-22T14:54:48;1.02;;;0.88;;
45356;SDS011;31092;51.924;21.448;2023-07-22T14:57:14;0.80;;;0.80;;
45356;SDS011;31092;51.924;21.448;2023-07-22T14:59:42;3.05;;;1.05;;
45356;SDS011;31092;51.924;21.448;2023-07-22T15:02:08;0.90;;;0.90;;
45356;SDS011;31092;51.924;21.448;2023-07-22T15:04:34;1.20;;;1.10;;
45356;SDS011;31092;51.924;21.448;2023-07-22T15:06:59;0.68;;;0.68;;
45356;SDS011;31092;51.924;21.448;2023-07-22T15:09:25;0.70;;;0.70;;